Time;durP1;ratioP1;P1;durP2;ratioP2;P2;SDS_P1;SDS_P2;PMS_P1;PMS_P2;Temp;Humidity;BMP_temperature;BMP_pressure;BME280_temperature;BME280_humidity;BME280_pressure;Samples;Min_cycle;Max_cycle;Signal;HPM_P1;HPM_P2
2022/12/07 00:01:33;;;;;;;4.17;3.83;;;19.30;64.80;;;;;;5025096;28;20471;-67
2022/12/07 00:04:04;;;;;;;4.23;3.90;;;19.30;64.80;;;;;;5016772;28;20958;-67
2022/12/07 00:06:36;;;;;;;4.00;3.47;;;19.30;64.70;;;;;;5015620;28;20803;-67
2022/12/07 00:09:06;;;;;;;3.20;3.00;;;19.30;64.70;;;;;;5023733;28;20599;-67
2022/12/07 00:11:34;;;;;;;4.23;3.83;;;19.30;64.70;;;;;;5011857;28;20486;-67
2022/12/07 00:14:04;;;;;;;3.77;3.47;;;19.30;64.60;;;;;;5012973;28;20545;-67
2022/12/07 00:16:34;;;;;;;3.43;3.13;;;19.30;64.60;;;;;;5012279;28;20448;-67
2022/12/07 00:19:03;;;;;;;3.20;3.00;;;19.30;64.60;;;;;;5013325;28;20560;-67
2022/12/07 00:21:35;;;;;;;3.60;3.33;;;19.30;64.60;;;;;;5020891;28;20497;-67
2022/12/07 00:24:05;;;;;;;3.53;3.23;;;19.30;64.50;;;;;;5026490;28;20561;-67
2022/12/07 00:26:35;;;;;;;3.33;3.03;;;19.30;64.50;;;;;;5022591;28;20549;-67
2022/12/07 00:29:06;;;;;;;3.13;2.93;;;19.30;64.50;;;;;;5019349;28;20469;-67
2022/12/07 00:31:38;;;;;;;3.80;3.50;;;19.30;64.40;;;;;;5018306;28;20489;-67
2022/12/07 00:34:07;;;;;;;3.70;3.40;;;19.30;64.40;;;;;;5014058;28;20503;-67
2022/12/07 00:36:37;;;;;;;3.50;3.30;;;19.30;64.40;;;;;;5018841;28;20486;-68
2022/12/07 00:39:05;;;;;;;3.07;2.87;;;19.30;64.30;;;;;;5019657;28;20473;-68
2022/12/07 00:41:33;;;;;;;4.40;3.40;;;19.30;64.30;;;;;;5015372;28;20869;-67
2022/12/07 00:44:02;;;;;;;4.10;3.73;;;19.30;64.30;;;;;;5025725;28;21070;-68
2022/12/07 00:46:33;;;;;;;3.20;3.00;;;19.30;64.20;;;;;;5031347;28;20495;-67
2022/12/07 00:49:01;;;;;;;3.30;3.10;;;19.30;64.10;;;;;;5024648;28;20469;-67
2022/12/07 00:51:29;;;;;;;3.23;3.03;;;19.30;64.20;;;;;;5016939;28;20495;-67
2022/12/07 00:53:59;;;;;;;4.00;3.60;;;19.30;64.10;;;;;;5019619;28;20486;-68
2022/12/07 00:56:29;;;;;;;3.73;3.30;;;19.30;64.10;;;;;;5034275;28;20457;-67
2022/12/07 00:58:59;;;;;;;3.30;3.00;;;19.30;64.10;;;;;;5024506;28;20560;-67
2022/12/07 01:01:30;;;;;;;2.80;2.60;;;19.30;64.10;;;;;;5026363;28;20989;-67
2022/12/07 01:04:00;;;;;;;3.57;3.37;;;19.30;64.10;;;;;;5024351;28;20494;-67
2022/12/07 01:06:30;;;;;;;3.33;3.10;;;19.30;64.00;;;;;;5029071;28;20509;-67
2022/12/07 01:09:00;;;;;;;2.90;2.70;;;19.30;63.90;;;;;;5023122;28;20478;-68
2022/12/07 01:11:30;;;;;;;3.23;3.03;;;19.30;63.90;;;;;;5029990;28;20489;-67
2022/12/07 01:14:00;;;;;;;3.40;3.20;;;19.30;63.90;;;;;;5017414;28;20454;-67
2022/12/07 01:16:31;;;;;;;2.80;2.60;;;19.30;63.90;;;;;;5026242;28;20984;-67
2022/12/07 01:19:01;;;;;;;3.43;3.13;;;19.30;63.90;;;;;;5029309;28;20472;-67
2022/12/07 01:21:34;;;;;;;4.13;3.23;;;19.30;63.80;;;;;;5014862;28;20872;-67
2022/12/07 01:24:05;;;;;;;3.40;3.20;;;19.30;63.80;;;;;;5015810;28;20519;-67
2022/12/07 01:26:33;;;;;;;3.20;2.90;;;19.30;63.70;;;;;;5018831;28;21044;-67
2022/12/07 01:29:02;;;;;;;3.30;3.00;;;19.30;63.70;;;;;;5014270;28;20559;-67
2022/12/07 01:31:30;;;;;;;2.93;2.73;;;19.30;63.80;;;;;;5014041;28;20464;-67
2022/12/07 01:33:59;;;;;;;3.27;3.07;;;19.30;63.70;;;;;;5020708;28;20511;-67
2022/12/07 01:36:29;;;;;;;3.20;3.00;;;19.30;63.70;;;;;;5019905;28;20971;-67
2022/12/07 01:38:59;;;;;;;2.93;2.73;;;19.30;63.70;;;;;;5022434;28;20526;-67
2022/12/07 01:41:31;;;;;;;3.30;3.10;;;19.30;63.70;;;;;;5016784;28;20489;-67
2022/12/07 01:44:21;;;;;;;3.63;3.33;;;19.30;63.60;;;;;;5022555;28;20485;-67
2022/12/07 01:46:51;;;;;;;3.20;3.00;;;19.30;63.60;;;;;;5017691;28;20868;-67
2022/12/07 01:49:25;;;;;;;3.00;2.80;;;19.30;63.60;;;;;;5028113;28;20816;-67
2022/12/07 01:52:01;;;;;;;3.40;3.10;;;19.30;63.60;;;;;;5033912;28;20514;-67
2022/12/07 01:54:29;;;;;;;3.10;2.90;;;19.30;63.60;;;;;;5032903;28;20583;-67
2022/12/07 01:57:00;;;;;;;3.17;2.97;;;19.30;63.50;;;;;;5019458;28;20450;-67
2022/12/07 01:59:28;;;;;;;3.33;3.13;;;19.30;63.50;;;;;;5016569;28;20481;-67
2022/12/07 02:01:57;;;;;;;3.13;2.93;;;19.30;63.50;;;;;;5021018;28;21015;-67
2022/12/07 02:04:26;;;;;;;3.27;3.07;;;19.30;63.50;;;;;;5016257;28;20459;-67
2022/12/07 02:06:55;;;;;;;2.90;2.70;;;19.30;63.50;;;;;;5023898;28;20797;-67
2022/12/07 02:09:24;;;;;;;2.63;2.43;;;19.30;63.50;;;;;;5017573;28;20556;-67
2022/12/07 02:11:53;;;;;;;2.97;2.77;;;19.30;63.50;;;;;;5025008;28;20551;-67
2022/12/07 02:14:23;;;;;;;2.70;2.50;;;19.30;63.40;;;;;;5026286;28;20457;-67
2022/12/07 02:17:03;;;;;;;3.87;2.30;;;19.30;63.40;;;;;;5023061;28;20490;-67
2022/12/07 02:20:10;;;;;;;3.10;2.90;;;19.30;63.40;;;;;;5019256;28;21358;-67
2022/12/07 02:23:08;;;;;;;2.93;2.70;;;19.30;63.40;;;;;;4997816;28;20493;-67
2022/12/07 02:25:56;;;;;;;2.93;2.73;;;19.30;63.40;;;;;;5020407;28;20551;-67
2022/12/07 02:28:30;;;;;;;3.33;3.13;;;19.30;63.40;;;;;;5015245;28;20541;-67
2022/12/07 02:31:05;;;;;;;2.63;2.43;;;19.30;63.40;;;;;;5019785;28;21007;-67
2022/12/07 02:33:40;;;;;;;3.10;2.90;;;19.30;63.30;;;;;;5012623;28;20461;-67
2022/12/07 02:36:13;;;;;;;2.80;2.60;;;19.30;63.30;;;;;;5012518;28;20460;-67
2022/12/07 02:38:50;;;;;;;3.53;2.40;;;19.30;63.30;;;;;;5028868;28;20519;-67
2022/12/07 02:41:22;;;;;;;2.23;2.13;;;19.30;63.30;;;;;;5013461;28;20974;-67
2022/12/07 02:43:55;;;;;;;2.50;2.30;;;19.30;63.30;;;;;;5012942;28;20989;-67
2022/12/07 02:46:29;;;;;;;2.47;2.27;;;19.30;63.30;;;;;;5015551;28;20548;-67
2022/12/07 02:48:59;;;;;;;2.70;2.50;;;19.30;63.20;;;;;;5021601;28;20832;-68
2022/12/07 02:51:31;;;;;;;3.00;2.80;;;19.30;63.20;;;;;;5011960;28;20861;-67
2022/12/07 02:54:00;;;;;;;2.60;2.40;;;19.30;63.20;;;;;;5024334;28;20496;-67
2022/12/07 02:56:36;;;;;;;2.20;2.10;;;19.30;63.30;;;;;;5031303;28;20456;-67
2022/12/07 02:59:18;;;;;;;2.70;2.50;;;19.30;63.20;;;;;;5023362;28;20489;-67
2022/12/07 03:01:55;;;;;;;2.73;2.53;;;19.30;63.10;;;;;;5013127;28;20565;-67
2022/12/07 03:04:39;;;;;;;2.07;1.97;;;19.30;63.10;;;;;;5023610;28;20519;-67
2022/12/07 03:07:19;;;;;;;3.33;3.03;;;19.30;63.10;;;;;;5014804;28;20539;-67
2022/12/07 03:09:54;;;;;;;3.53;3.23;;;19.30;63.10;;;;;;5012135;28;20489;-68
2022/12/07 03:12:29;;;;;;;2.27;2.17;;;19.30;63.10;;;;;;5017980;28;20459;-67
2022/12/07 03:15:02;;;;;;;2.40;2.30;;;19.30;63.00;;;;;;5023195;28;20558;-68
2022/12/07 03:17:36;;;;;;;2.73;2.53;;;19.30;63.00;;;;;;5015887;28;20480;-67
2022/12/07 03:20:08;;;;;;;2.63;2.43;;;19.30;63.00;;;;;;5026583;28;20472;-67
2022/12/07 03:22:40;;;;;;;2.50;2.30;;;19.30;63.00;;;;;;5030885;28;20564;-68
2022/12/07 03:25:11;;;;;;;2.30;2.20;;;19.30;63.00;;;;;;5018275;28;20540;-67
2022/12/07 03:27:43;;;;;;;2.87;2.67;;;19.30;63.00;;;;;;5032602;28;20468;-67
2022/12/07 03:30:15;;;;;;;2.37;2.20;;;19.30;62.90;;;;;;5024322;28;20458;-67
2022/12/07 03:32:49;;;;;;;2.73;2.53;;;19.30;63.00;;;;;;5019423;28;21050;-68
2022/12/07 03:35:23;;;;;;;3.10;2.90;;;19.30;62.90;;;;;;5019001;28;20514;-68
2022/12/07 03:37:56;;;;;;;2.67;2.47;;;19.30;63.00;;;;;;5028427;28;20470;-67
2022/12/07 03:40:31;;;;;;;2.20;2.10;;;19.30;62.90;;;;;;5012328;28;20603;-68
2022/12/07 03:43:01;;;;;;;2.10;2.00;;;19.30;62.90;;;;;;5013361;28;20464;-68
2022/12/07 03:45:38;;;;;;;2.40;2.30;;;19.30;62.90;;;;;;5019287;28;20573;-68
2022/12/07 03:48:16;;;;;;;2.20;2.10;;;19.30;62.80;;;;;;5019192;28;20475;-67
2022/12/07 03:50:52;;;;;;;2.50;2.30;;;19.30;62.80;;;;;;5018630;28;20496;-67
2022/12/07 03:53:24;;;;;;;2.60;2.43;;;19.30;62.90;;;;;;5016515;28;20465;-67
2022/12/07 03:55:55;;;;;;;2.53;2.33;;;19.30;62.80;;;;;;5022788;28;20536;-67
2022/12/07 03:58:25;;;;;;;2.63;2.43;;;19.30;62.80;;;;;;5025337;28;20534;-68
2022/12/07 04:00:53;;;;;;;2.43;2.33;;;19.30;62.80;;;;;;5018005;28;20504;-68
2022/12/07 04:03:22;;;;;;;2.67;2.47;;;19.30;62.80;;;;;;5022767;28;20551;-67
2022/12/07 04:05:51;;;;;;;2.47;2.27;;;19.30;62.80;;;;;;5025151;28;20523;-67
2022/12/07 04:08:19;;;;;;;3.00;2.80;;;19.30;62.70;;;;;;5028096;28;20461;-67
2022/12/07 04:10:47;;;;;;;2.20;2.10;;;19.30;62.70;;;;;;5015055;28;20496;-67
2022/12/07 04:13:16;;;;;;;2.67;2.47;;;19.30;62.80;;;;;;5015279;28;20527;-68
2022/12/07 04:15:44;;;;;;;2.43;2.30;;;19.30;62.70;;;;;;5020982;28;20457;-67
2022/12/07 04:18:12;;;;;;;2.70;2.50;;;19.30;62.70;;;;;;5027780;28;20463;-67
2022/12/07 04:20:42;;;;;;;2.63;2.43;;;19.30;62.70;;;;;;5014277;28;20488;-67
2022/12/07 04:23:10;;;;;;;2.03;1.93;;;19.30;62.70;;;;;;5024213;28;20518;-67
2022/12/07 04:25:38;;;;;;;4.00;2.57;;;19.30;62.70;;;;;;5014713;28;20553;-67
2022/12/07 04:28:06;;;;;;;2.20;2.10;;;19.30;62.70;;;;;;5017732;28;20465;-67
2022/12/07 04:30:34;;;;;;;2.70;2.50;;;19.30;62.70;;;;;;5014913;28;20544;-67
2022/12/07 04:33:03;;;;;;;2.83;2.63;;;19.30;62.70;;;;;;5015637;28;20556;-67
2022/12/07 04:35:31;;;;;;;2.70;2.60;;;19.30;62.60;;;;;;5026893;28;20562;-67
2022/12/07 04:38:00;;;;;;;2.57;2.37;;;19.30;62.60;;;;;;5029740;28;20547;-67
2022/12/07 04:40:28;;;;;;;2.30;2.13;;;19.30;62.60;;;;;;5020190;28;20493;-67
2022/12/07 04:42:57;;;;;;;2.63;2.43;;;19.30;62.60;;;;;;5016242;28;20425;-67
2022/12/07 04:45:25;;;;;;;2.57;2.43;;;19.30;62.60;;;;;;5027465;28;20467;-67
2022/12/07 04:47:53;;;;;;;2.50;2.30;;;19.30;62.60;;;;;;5022019;28;20523;-67
2022/12/07 04:50:21;;;;;;;2.10;1.97;;;19.30;62.60;;;;;;5015877;28;20466;-67
2022/12/07 04:52:50;;;;;;;2.63;2.47;;;19.30;62.60;;;;;;5027830;28;20453;-67
2022/12/07 04:55:19;;;;;;;2.23;2.07;;;19.30;62.60;;;;;;5021161;28;20495;-67
2022/12/07 04:57:48;;;;;;;2.60;2.50;;;19.30;62.60;;;;;;5034611;28;20481;-67
2022/12/07 05:00:16;;;;;;;2.90;2.37;;;19.30;62.50;;;;;;5022553;28;20455;-68
2022/12/07 05:02:44;;;;;;;2.23;2.13;;;19.30;62.50;;;;;;5024049;28;20453;-67
2022/12/07 05:05:13;;;;;;;2.23;2.13;;;19.30;62.50;;;;;;5022101;28;20550;-67
2022/12/07 05:07:41;;;;;;;2.27;2.13;;;19.30;62.50;;;;;;5017003;28;20595;-67
2022/12/07 05:10:10;;;;;;;2.87;2.67;;;19.30;62.50;;;;;;5015331;28;20466;-68
2022/12/07 05:12:39;;;;;;;2.50;2.40;;;19.30;62.50;;;;;;5020010;28;20720;-67
2022/12/07 05:15:08;;;;;;;2.47;2.27;;;19.30;62.40;;;;;;5023201;28;20458;-68
2022/12/07 05:17:36;;;;;;;2.70;2.50;;;19.30;62.40;;;;;;5016427;28;20912;-68
2022/12/07 05:20:06;;;;;;;2.47;2.27;;;19.30;62.40;;;;;;5014001;28;20540;-67
2022/12/07 05:22:34;;;;;;;2.40;2.20;;;19.30;62.40;;;;;;5024314;28;20472;-68
2022/12/07 05:25:02;;;;;;;2.20;1.90;;;19.30;62.40;;;;;;5014508;28;20460;-68
2022/12/07 05:27:30;;;;;;;2.40;2.20;;;19.30;62.40;;;;;;5016046;28;20554;-68
2022/12/07 05:30:00;;;;;;;2.23;2.13;;;19.30;62.30;;;;;;5014214;28;20556;-65
2022/12/07 05:32:29;;;;;;;2.30;2.20;;;19.30;62.40;;;;;;5014085;28;20468;-65
2022/12/07 05:34:57;;;;;;;2.80;2.60;;;19.30;62.40;;;;;;5015512;28;20572;-68
2022/12/07 05:37:25;;;;;;;2.90;2.70;;;19.30;62.30;;;;;;5017500;28;20821;-66
2022/12/07 05:39:53;;;;;;;2.43;2.23;;;19.30;62.30;;;;;;5022254;28;20497;-66
2022/12/07 05:42:21;;;;;;;2.40;2.20;;;19.30;62.50;;;;;;5014029;28;20568;-67
2022/12/07 05:44:49;;;;;;;9.73;2.40;;;19.30;63.00;;;;;;5022475;28;20465;-67
2022/12/07 05:47:19;;;;;;;4.33;2.33;;;19.30;63.50;;;;;;5019513;28;20481;-67
2022/12/07 05:49:47;;;;;;;2.83;2.50;;;19.30;63.80;;;;;;5018673;28;20510;-67
2022/12/07 05:52:15;;;;;;;4.10;2.70;;;19.30;63.80;;;;;;5015406;28;20464;-67
2022/12/07 05:54:44;;;;;;;5.00;2.77;;;19.30;63.80;;;;;;5013630;28;20465;-67
2022/12/07 05:57:12;;;;;;;2.43;2.23;;;19.30;63.90;;;;;;5013920;28;20479;-67
2022/12/07 05:59:39;;;;;;;2.33;1.97;;;19.30;63.90;;;;;;5023929;28;20561;-67
2022/12/07 06:02:10;;;;;;;2.20;2.00;;;19.30;63.90;;;;;;5010600;28;21083;-67
2022/12/07 06:04:41;;;;;;;1.50;1.50;;;19.20;63.90;;;;;;5013494;28;20548;-66
2022/12/07 06:07:10;;;;;;;4.97;2.40;;;19.20;64.00;;;;;;5017205;28;20552;-66
2022/12/07 06:09:38;;;;;;;2.23;2.10;;;19.10;64.10;;;;;;5014148;28;20463;-66
2022/12/07 06:14:53;;;;;;;1.97;1.87;;;19.10;64.20;;;;;;5013260;28;20467;-66
2022/12/07 06:17:22;;;;;;;2.33;2.00;;;19.00;64.30;;;;;;5016222;28;20949;-66
2022/12/07 06:19:52;;;;;;;2.47;2.27;;;19.00;64.40;;;;;;5018324;28;20473;-66
2022/12/07 06:22:20;;;;;;;2.57;2.37;;;19.00;64.40;;;;;;5014782;28;20476;-66
2022/12/07 06:24:48;;;;;;;2.03;1.93;;;18.90;64.50;;;;;;5015335;28;20611;-66
2022/12/07 06:27:17;;;;;;;1.77;1.67;;;18.90;64.50;;;;;;5024961;28;21027;-66
2022/12/07 06:29:45;;;;;;;2.80;2.30;;;18.90;64.60;;;;;;5020658;28;20480;-71
2022/12/07 06:32:13;;;;;;;2.27;2.03;;;18.90;64.60;;;;;;5014179;28;21024;-66
2022/12/07 06:34:41;;;;;;;2.70;2.37;;;18.90;64.60;;;;;;5015713;28;20452;-66
2022/12/07 06:37:11;;;;;;;2.90;2.70;;;18.90;64.70;;;;;;5019685;28;20551;-66
2022/12/07 06:39:39;;;;;;;2.80;2.60;;;18.80;64.70;;;;;;5013639;28;20524;-66
2022/12/07 06:42:07;;;;;;;2.13;2.03;;;18.80;64.70;;;;;;5022161;28;20571;-66
2022/12/07 06:44:35;;;;;;;2.37;2.17;;;18.80;64.80;;;;;;5018653;28;20507;-66
2022/12/07 06:47:04;;;;;;;2.33;1.40;;;18.80;64.90;;;;;;5017315;28;20485;-66
2022/12/07 06:49:52;;;;;;;2.20;2.10;;;18.80;64.90;;;;;;5013944;28;20463;-66
2022/12/07 06:52:22;;;;;;;1.80;1.70;;;18.80;65.00;;;;;;5014471;28;20548;-66
2022/12/07 06:54:50;;;;;;;2.47;2.27;;;18.80;65.00;;;;;;5014796;28;20849;-66
2022/12/07 06:57:20;;;;;;;2.20;2.03;;;18.80;65.00;;;;;;5016585;28;20462;-66
2022/12/07 06:59:48;;;;;;;1.93;1.83;;;18.80;65.00;;;;;;5013503;28;20543;-67
2022/12/07 07:02:16;;;;;;;2.30;2.20;;;18.70;65.00;;;;;;5011712;28;20484;-66
2022/12/07 07:04:44;;;;;;;2.50;2.30;;;18.70;65.10;;;;;;5017410;28;20457;-66
2022/12/07 07:07:13;;;;;;;1.80;1.70;;;18.70;65.10;;;;;;5013338;28;20507;-66
2022/12/07 07:09:42;;;;;;;2.07;1.97;;;18.70;65.10;;;;;;5015163;28;21012;-66
2022/12/07 07:12:10;;;;;;;1.97;1.87;;;18.70;65.10;;;;;;5014845;28;20467;-66
2022/12/07 07:14:38;;;;;;;2.10;2.00;;;18.70;65.10;;;;;;5021212;28;20456;-67
2022/12/07 07:17:07;;;;;;;3.70;2.23;;;18.70;65.10;;;;;;5016460;28;20840;-66
2022/12/07 07:19:36;;;;;;;1.97;1.87;;;18.70;64.50;;;;;;5013684;28;20552;-66
2022/12/07 07:22:04;;;;;;;1.90;1.80;;;18.70;64.90;;;;;;5016076;28;20572;-66
2022/12/07 07:24:33;;;;;;;2.40;2.00;;;18.70;65.10;;;;;;5016531;28;21370;-66
2022/12/07 07:27:02;;;;;;;2.30;2.10;;;18.70;65.20;;;;;;5012036;28;20895;-66
2022/12/07 07:29:30;;;;;;;2.13;2.03;;;18.70;65.20;;;;;;5012753;28;20457;-66
2022/12/07 07:31:59;;;;;;;3.33;2.30;;;18.70;65.20;;;;;;5015862;28;20493;-66
2022/12/07 07:34:33;;;;;;;2.40;2.30;;;18.70;65.20;;;;;;5016544;28;20466;-66
2022/12/07 07:37:02;;;;;;;1.93;1.80;;;18.60;65.20;;;;;;5015660;28;20457;-66
2022/12/07 07:39:30;;;;;;;2.03;1.80;;;18.60;65.00;;;;;;5019719;28;20513;-66
2022/12/07 07:41:58;;;;;;;1.87;1.77;;;18.60;65.10;;;;;;5016061;28;20459;-67
2022/12/07 07:44:29;;;;;;;2.10;2.00;;;18.60;65.30;;;;;;5014218;28;20968;-67
2022/12/07 07:47:02;;;;;;;1.80;1.70;;;18.60;65.20;;;;;;5014130;28;20530;-67
2022/12/07 07:49:31;;;;;;;1.77;1.67;;;18.60;65.00;;;;;;5020486;28;20467;-66
2022/12/07 07:51:59;;;;;;;4.60;3.03;;;18.60;65.20;;;;;;5019630;28;21015;-66
2022/12/07 07:54:27;;;;;;;2.50;2.30;;;18.60;65.40;;;;;;5014740;28;20554;-67
2022/12/07 07:56:55;;;;;;;2.13;2.00;;;18.60;65.50;;;;;;5014780;28;20463;-67
2022/12/07 07:59:24;;;;;;;2.50;2.03;;;18.60;65.10;;;;;;5021666;28;20954;-66
2022/12/07 08:01:54;;;;;;;2.83;2.60;;;18.70;65.40;;;;;;5014250;28;20496;-67
2022/12/07 08:04:23;;;;;;;2.60;2.10;;;18.70;65.50;;;;;;5012165;28;20479;-66
2022/12/07 08:06:51;;;;;;;2.30;2.10;;;18.80;65.40;;;;;;5018644;28;20445;-67
2022/12/07 08:09:19;;;;;;;2.40;2.23;;;18.80;65.50;;;;;;5013787;28;20801;-67
2022/12/07 08:11:47;;;;;;;2.37;2.20;;;18.80;65.40;;;;;;5020285;28;20501;-67
2022/12/07 08:14:16;;;;;;;2.80;2.03;;;18.90;65.40;;;;;;5014338;28;20479;-68
2022/12/07 08:16:44;;;;;;;1.97;1.87;;;18.90;65.60;;;;;;5018075;28;20465;-67
2022/12/07 08:19:13;;;;;;;3.33;2.67;;;19.00;65.40;;;;;;5014043;28;20453;-67
2022/12/07 08:21:42;;;;;;;2.47;2.03;;;19.00;65.30;;;;;;5015175;28;20445;-66
2022/12/07 08:24:10;;;;;;;2.50;2.30;;;19.00;65.30;;;;;;5012107;28;20769;-67
2022/12/07 08:26:38;;;;;;;3.90;2.27;;;19.00;65.10;;;;;;5018478;28;20511;-67
2022/12/07 08:29:06;;;;;;;2.10;1.90;;;19.10;65.00;;;;;;5026724;28;20944;-67
2022/12/07 08:31:35;;;;;;;2.60;2.07;;;19.10;65.10;;;;;;5022204;28;20481;-64
2022/12/07 08:34:03;;;;;;;2.87;2.60;;;19.10;64.70;;;;;;5015432;28;20465;-68
2022/12/07 08:36:33;;;;;;;2.30;2.10;;;19.20;64.90;;;;;;5017575;28;20464;-67
2022/12/07 08:39:01;;;;;;;5.33;2.53;;;19.20;64.70;;;;;;5012968;28;20937;-67
2022/12/07 08:41:49;;;;;;;2.97;2.50;;;19.20;64.60;;;;;;5010081;28;20451;-67
2022/12/07 08:44:17;;;;;;;3.30;2.37;;;19.30;64.50;;;;;;5013330;28;20478;-67
2022/12/07 08:46:49;;;;;;;3.03;2.73;;;19.30;64.50;;;;;;5015321;28;20469;-67
2022/12/07 08:49:21;;;;;;;3.13;2.23;;;19.30;64.40;;;;;;5012820;28;20470;-67
2022/12/07 08:51:51;;;;;;;3.10;2.30;;;19.30;64.40;;;;;;5014896;28;20491;-68
2022/12/07 08:54:20;;;;;;;3.53;2.30;;;19.30;64.40;;;;;;5015232;28;20949;-68
2022/12/07 08:56:50;;;;;;;2.40;2.20;;;19.40;64.40;;;;;;5009275;28;20477;-67
2022/12/07 08:59:26;;;;;;;2.23;2.13;;;19.40;64.40;;;;;;5013091;28;20470;-67
2022/12/07 09:01:54;;;;;;;4.70;2.00;;;19.40;64.30;;;;;;5014052;28;20450;-67
2022/12/07 09:04:22;;;;;;;2.57;2.30;;;19.40;64.40;;;;;;5012101;28;20482;-69
2022/12/07 09:06:52;;;;;;;2.83;2.30;;;19.40;64.30;;;;;;5012216;28;20496;-68
2022/12/07 09:09:20;;;;;;;2.60;2.40;;;19.40;64.30;;;;;;5015650;28;20477;-67
2022/12/07 09:11:49;;;;;;;2.27;2.07;;;19.40;64.20;;;;;;5027146;28;20485;-67
2022/12/07 09:14:18;;;;;;;2.30;2.10;;;19.50;64.10;;;;;;5016736;28;20592;-67
2022/12/07 09:16:47;;;;;;;3.13;2.93;;;19.50;64.10;;;;;;5019239;28;20458;-67
2022/12/07 09:19:18;;;;;;;3.50;2.53;;;19.50;64.00;;;;;;5017928;28;20549;-67
2022/12/07 09:21:46;;;;;;;2.70;2.50;;;19.50;64.00;;;;;;5017415;28;20495;-67
2022/12/07 09:24:16;;;;;;;2.63;2.43;;;19.50;64.10;;;;;;5014381;28;20473;-67
2022/12/07 09:26:44;;;;;;;3.43;2.27;;;19.60;64.00;;;;;;5014492;28;20528;-67
2022/12/07 09:29:12;;;;;;;2.27;1.90;;;19.50;64.00;;;;;;5016711;28;20453;-68
2022/12/07 09:31:41;;;;;;;2.60;2.40;;;19.50;64.10;;;;;;5018130;28;20515;-67
2022/12/07 09:34:09;;;;;;;5.43;1.97;;;19.60;63.90;;;;;;5016911;28;20468;-68
2022/12/07 09:36:38;;;;;;;2.60;2.40;;;19.60;63.90;;;;;;5017449;28;20462;-67
2022/12/07 09:39:06;;;;;;;2.73;2.43;;;19.60;63.90;;;;;;5027379;28;20559;-68
2022/12/07 09:41:39;;;;;;;2.10;1.90;;;19.60;63.90;;;;;;5022882;28;20545;-68
2022/12/07 09:44:10;;;;;;;2.27;2.10;;;19.60;63.80;;;;;;5016840;28;21035;-68
2022/12/07 09:46:41;;;;;;;2.70;2.50;;;19.60;63.90;;;;;;5017787;28;20853;-67
2022/12/07 09:49:15;;;;;;;2.40;2.30;;;19.60;63.90;;;;;;5018049;28;20481;-68
2022/12/07 09:51:43;;;;;;;2.53;2.40;;;19.60;63.90;;;;;;5016278;28;20484;-68
2022/12/07 09:54:14;;;;;;;2.83;2.33;;;19.60;63.90;;;;;;5020078;28;20450;-68
2022/12/07 09:56:44;;;;;;;2.47;2.27;;;19.60;63.90;;;;;;5022135;28;20470;-68
2022/12/07 09:59:18;;;;;;;2.30;2.10;;;19.70;63.90;;;;;;5020924;28;20462;-68
2022/12/07 10:01:49;;;;;;;2.60;2.13;;;19.70;63.80;;;;;;5016134;28;20462;-68
2022/12/07 10:04:21;;;;;;;2.43;2.23;;;19.70;63.70;;;;;;5019052;28;20483;-68
2022/12/07 10:06:50;;;;;;;2.17;2.03;;;19.80;63.60;;;;;;5016202;28;20955;-67
2022/12/07 10:09:21;;;;;;;2.60;2.40;;;19.80;63.60;;;;;;5017175;28;20477;-67
2022/12/07 10:12:06;;;;;;;2.07;1.97;;;19.80;63.60;;;;;;5021817;28;20969;-68
2022/12/07 10:14:37;;;;;;;2.50;2.30;;;19.80;63.60;;;;;;5020086;28;20490;-67
2022/12/07 10:17:32;;;;;;;2.37;2.20;;;19.80;63.30;;;;;;5020337;28;20462;-67
2022/12/07 10:20:19;;;;;;;4.53;2.30;;;19.90;63.10;;;;;;5013544;28;20512;-68
2022/12/07 10:23:04;;;;;;;2.40;2.20;;;19.90;63.00;;;;;;5016011;28;20870;-67
2022/12/07 10:25:34;;;;;;;2.53;2.33;;;19.90;63.10;;;;;;5015356;28;20464;-67
2022/12/07 10:28:13;;;;;;;5.00;2.77;;;19.90;63.30;;;;;;5024256;28;20505;-67
2022/12/07 10:30:58;;;;;;;2.80;2.60;;;19.90;63.40;;;;;;5016548;28;20458;-67
2022/12/07 10:33:36;;;;;;;2.60;2.40;;;19.90;63.40;;;;;;5019235;28;20502;-67
2022/12/07 10:36:21;;;;;;;4.73;2.20;;;20.00;63.40;;;;;;5016968;28;20548;-67
2022/12/07 10:38:51;;;;;;;2.33;2.13;;;20.00;63.40;;;;;;5018886;28;20560;-67
2022/12/07 10:41:20;;;;;;;2.67;2.30;;;20.00;63.30;;;;;;5015092;28;20602;-67
2022/12/07 10:43:55;;;;;;;3.00;2.67;;;20.00;63.40;;;;;;5029330;28;20588;-67
2022/12/07 10:47:01;;;;;;;2.10;2.00;;;20.00;63.50;;;;;;5025063;28;21031;-67
2022/12/07 10:50:03;;;;;;;2.47;2.27;;;20.10;63.50;;;;;;5019728;28;20586;-67
2022/12/07 10:52:46;;;;;;;2.83;2.63;;;20.10;63.50;;;;;;5015768;28;20554;-67
2022/12/07 10:55:23;;;;;;;3.00;2.43;;;20.10;63.50;;;;;;5014189;28;20499;-67
2022/12/07 10:58:03;;;;;;;2.97;2.63;;;20.10;63.50;;;;;;5013134;28;20491;-67
2022/12/07 11:00:39;;;;;;;2.37;2.17;;;20.10;63.50;;;;;;5014541;28;20446;-68
2022/12/07 11:03:31;;;;;;;2.53;2.33;;;20.20;63.50;;;;;;5014301;28;20551;-67
2022/12/07 11:06:10;;;;;;;4.20;2.67;;;20.20;63.40;;;;;;5017668;28;21032;-68
2022/12/07 11:08:58;;;;;;;2.50;2.30;;;20.20;63.40;;;;;;5020447;28;20541;-67
2022/12/07 11:11:35;;;;;;;2.40;2.23;;;20.20;63.40;;;;;;5022263;28;20566;-71
2022/12/07 11:14:15;;;;;;;3.30;2.70;;;20.20;63.50;;;;;;5019387;28;20462;-66
2022/12/07 11:16:56;;;;;;;2.77;2.57;;;20.20;63.50;;;;;;5022835;28;20998;-66
2022/12/07 11:19:55;;;;;;;3.00;2.23;;;20.20;63.60;;;;;;5019382;28;20454;-66
2022/12/07 11:22:34;;;;;;;2.50;1.90;;;20.20;63.60;;;;;;5022350;28;20515;-66
2022/12/07 11:25:16;;;;;;;3.60;2.07;;;20.20;63.50;;;;;;5021046;28;20568;-66
2022/12/07 11:27:49;;;;;;;2.63;2.37;;;20.20;63.50;;;;;;5019575;28;20487;-66
2022/12/07 11:30:21;;;;;;;2.40;2.20;;;20.30;63.40;;;;;;5030297;28;20495;-66
2022/12/07 11:33:10;;;;;;;2.13;2.03;;;20.20;63.60;;;;;;5014422;28;20519;-66
2022/12/07 11:35:52;;;;;;;2.50;1.90;;;20.30;63.40;;;;;;5019148;28;20443;-66
2022/12/07 11:38:26;;;;;;;2.10;1.97;;;20.30;63.40;;;;;;5018035;28;20460;-67
2022/12/07 11:41:12;;;;;;;2.67;2.10;;;20.30;63.40;;;;;;5016800;28;20505;-66
2022/12/07 11:43:53;;;;;;;1.90;1.80;;;20.30;63.40;;;;;;5018904;28;20455;-66
2022/12/07 11:46:25;;;;;;;3.23;2.40;;;20.30;63.40;;;;;;5013008;28;20469;-65
2022/12/07 11:49:02;;;;;;;3.80;2.10;;;20.30;63.10;;;;;;5016870;28;20811;-65
2022/12/07 11:51:36;;;;;;;2.80;2.13;;;20.30;62.70;;;;;;5016900;28;20556;-65
2022/12/07 11:54:13;;;;;;;2.30;2.20;;;20.30;62.60;;;;;;5012160;28;20554;-65
2022/12/07 11:56:41;;;;;;;2.40;2.17;;;20.30;62.60;;;;;;5019365;28;20535;-65
2022/12/07 11:59:14;;;;;;;2.53;2.40;;;20.20;62.70;;;;;;5017996;28;20470;-65
2022/12/07 12:01:51;;;;;;;2.13;2.03;;;20.20;62.60;;;;;;5018345;28;21234;-65
2022/12/07 12:04:33;;;;;;;2.30;2.13;;;20.20;62.60;;;;;;5019133;28;20474;-65
2022/12/07 12:07:02;;;;;;;1.73;1.63;;;20.20;62.50;;;;;;5017639;28;20897;-65
2022/12/07 12:09:54;;;;;;;2.20;2.10;;;20.20;62.50;;;;;;5013727;28;21571;-66
2022/12/07 12:12:53;;;;;;;2.17;2.00;;;20.10;62.50;;;;;;5019042;28;20460;-65
2022/12/07 12:15:59;;;;;;;2.07;1.70;;;20.10;62.00;;;;;;5006156;28;20501;-66
2022/12/07 12:19:03;;;;;;;2.70;1.97;;;20.10;62.10;;;;;;5010771;28;20463;-66
2022/12/07 12:21:33;;;;;;;1.83;1.73;;;20.00;61.30;;;;;;4978262;28;20455;-67
2022/12/07 12:24:06;;;;;;;3.60;2.30;;;20.00;60.50;;;;;;5013149;28;20492;-66
2022/12/07 12:26:38;;;;;;;2.10;1.90;;;20.00;60.40;;;;;;5011444;28;20794;-66
2022/12/07 12:29:08;;;;;;;3.10;1.70;;;19.90;59.70;;;;;;5012768;28;20953;-66
2022/12/07 12:31:39;;;;;;;2.10;1.90;;;19.90;59.80;;;;;;5011691;28;20519;-68
2022/12/07 12:34:32;;;;;;;2.03;1.93;;;19.90;59.50;;;;;;5016917;28;20494;-67
2022/12/07 12:37:02;;;;;;;2.40;1.93;;;19.90;60.80;;;;;;5013032;28;20546;-66
2022/12/07 12:39:30;;;;;;;2.50;2.00;;;19.90;61.10;;;;;;5010399;28;20584;-67
2022/12/07 12:42:08;;;;;;;2.53;1.90;;;19.90;61.60;;;;;;5020254;28;20465;-66
2022/12/07 12:45:21;;;;;;;2.07;1.77;;;19.90;62.00;;;;;;5024611;28;20565;-66
2022/12/07 12:47:59;;;;;;;4.23;2.00;;;19.90;62.30;;;;;;5020036;28;20586;-66
2022/12/07 12:50:30;;;;;;;1.50;1.40;;;19.90;62.40;;;;;;5020696;28;20486;-67
2022/12/07 12:53:15;;;;;;;1.97;1.83;;;19.90;62.80;;;;;;5023493;28;20552;-67
2022/12/07 12:56:17;;;;;;;2.33;1.90;;;19.90;63.10;;;;;;5015811;28;20461;-67
2022/12/07 12:58:46;;;;;;;1.80;1.70;;;19.90;63.10;;;;;;5018636;28;20499;-67
2022/12/07 13:01:43;;;;;;;2.03;1.63;;;20.00;63.20;;;;;;5019537;28;20549;-68
2022/12/07 13:04:38;;;;;;;1.90;1.70;;;20.00;63.40;;;;;;5020350;28;20471;-67
2022/12/07 13:07:13;;;;;;;1.50;1.40;;;20.00;63.50;;;;;;5019327;28;20489;-67
2022/12/07 13:09:46;;;;;;;2.13;1.93;;;20.00;63.60;;;;;;5019197;28;20497;-66
2022/12/07 13:12:17;;;;;;;2.00;1.67;;;20.00;63.60;;;;;;5025918;28;20469;-66
2022/12/07 13:14:57;;;;;;;1.57;1.47;;;20.10;63.70;;;;;;5020106;28;21043;-66
2022/12/07 13:18:00;;;;;;;1.60;1.50;;;20.10;63.70;;;;;;5022127;28;20507;-66
2022/12/07 13:20:52;;;;;;;1.53;1.43;;;20.10;63.80;;;;;;5018738;28;20500;-66